sensor_id;sensor_type;location;lat;lon;timestamp;temperature;humidity
41926;DHT22;27615;51.826;5.692;2023-01-15T00:00:13;7.90;99.90
41926;DHT22;27615;51.826;5.692;2023-01-15T00:02:38;7.90;99.90
41926;DHT22;27615;51.826;5.692;2023-01-15T00:05:04;7.90;99.90
41926;DHT22;27615;51.826;5.692;2023-01-15T00:07:30;7.90;99.90
41926;DHT22;27615;51.826;5.692;2023-01-15T00:09:56;7.90;99.90
41926;DHT22;27615;51.826;5.692;2023-01-15T00:12:22;7.90;99.90
41926;DHT22;27615;51.826;5.692;2023-01-15T00:14:47;7.90;99.90
41926;DHT22;27615;51.826;5.692;2023-01-15T00:17:13;7.90;99.90
41926;DHT22;27615;51.826;5.692;2023-01-15T00:19:38;7.90;99.90
41926;DHT22;27615;51.826;5.692;2023-01-15T00:22:04;7.90;99.90
41926;DHT22;27615;51.826;5.692;2023-01-15T00:24:29;7.90;99.90
41926;DHT22;27615;51.826;5.692;2023-01-15T00:27:13;7.90;99.90
41926;DHT22;27615;51.826;5.692;2023-01-15T00:29:57;7.90;99.90
41926;DHT22;27615;51.826;5.692;2023-01-15T00:32:23;7.90;99.90
41926;DHT22;27615;51.826;5.692;2023-01-15T00:34:52;7.90;99.90
41926;DHT22;27615;51.826;5.692;2023-01-15T00:37:17;7.90;99.90
41926;DHT22;27615;51.826;5.692;2023-01-15T00:39:43;7.90;99.90
41926;DHT22;27615;51.826;5.692;2023-01-15T00:42:10;7.90;99.90
41926;DHT22;27615;51.826;5.692;2023-01-15T00:44:35;7.90;99.90
41926;DHT22;27615;51.826;5.692;2023-01-15T00:47:01;7.90;99.90
41926;DHT22;27615;51.826;5.692;2023-01-15T00:49:27;7.90;99.90
41926;DHT22;27615;51.826;5.692;2023-01-15T00:51:52;7.80;99.90
41926;DHT22;27615;51.826;5.692;2023-01-15T00:54:18;7.80;99.90
41926;DHT22;27615;51.826;5.692;2023-01-15T00:56:43;7.80;99.90
41926;DHT22;27615;51.826;5.692;2023-01-15T00:59:09;7.80;99.90
41926;DHT22;27615;51.826;5.692;2023-01-15T01:01:34;7.80;99.90
41926;DHT22;27615;51.826;5.692;2023-01-15T01:04:00;7.80;99.90
41926;DHT22;27615;51.826;5.692;2023-01-15T01:06:26;7.80;99.90
41926;DHT22;27615;51.826;5.692;2023-01-15T01:08:52;7.80;99.90
41926;DHT22;27615;51.826;5.692;2023-01-15T01:11:20;7.80;99.90
41926;DHT22;27615;51.826;5.692;2023-01-15T01:13:46;7.70;99.90
41926;DHT22;27615;51.826;5.692;2023-01-15T01:16:23;7.70;99.90
41926;DHT22;27615;51.826;5.692;2023-01-15T01:18:49;7.70;99.90
41926;DHT22;27615;51.826;5.692;2023-01-15T01:21:14;7.70;99.90
41926;DHT22;27615;51.826;5.692;2023-01-15T01:23:40;7.70;99.90
41926;DHT22;27615;51.826;5.692;2023-01-15T01:26:05;7.70;99.90
41926;DHT22;27615;51.826;5.692;2023-01-15T01:28:31;7.70;99.90
41926;DHT22;27615;51.826;5.692;2023-01-15T01:30:56;7.60;99.90
41926;DHT22;27615;51.826;5.692;2023-01-15T01:33:22;7.60;99.90
41926;DHT22;27615;51.826;5.692;2023-01-15T01:35:48;7.60;99.90
41926;DHT22;27615;51.826;5.692;2023-01-15T01:38:15;7.60;99.90
41926;DHT22;27615;51.826;5.692;2023-01-15T01:40:42;7.60;99.90
41926;DHT22;27615;51.826;5.692;2023-01-15T01:43:24;7.50;99.90
41926;DHT22;27615;51.826;5.692;2023-01-15T01:45:50;7.60;99.90
41926;DHT22;27615;51.826;5.692;2023-01-15T01:48:18;7.60;99.90
41926;DHT22;27615;51.826;5.692;2023-01-15T01:50:45;7.60;99.90
41926;DHT22;27615;51.826;5.692;2023-01-15T01:53:17;7.50;99.90
41926;DHT22;27615;51.826;5.692;2023-01-15T01:55:44;7.50;99.90
41926;DHT22;27615;51.826;5.692;2023-01-15T01:58:11;7.50;99.90
41926;DHT22;27615;51.826;5.692;2023-01-15T02:00:40;7.50;99.90
41926;DHT22;27615;51.826;5.692;2023-01-15T02:03:08;7.50;99.90
41926;DHT22;27615;51.826;5.692;2023-01-15T02:05:39;7.50;99.90
41926;DHT22;27615;51.826;5.692;2023-01-15T02:08:06;7.50;99.90
41926;DHT22;27615;51.826;5.692;2023-01-15T02:10:32;7.50;99.90
41926;DHT22;27615;51.826;5.692;2023-01-15T02:13:03;7.50;99.90
41926;DHT22;27615;51.826;5.692;2023-01-15T02:15:35;7.50;99.90
41926;DHT22;27615;51.826;5.692;2023-01-15T02:20:41;7.40;99.90
41926;DHT22;27615;51.826;5.692;2023-01-15T02:28:50;7.40;99.90
41926;DHT22;27615;51.826;5.692;2023-01-15T02:31:28;7.30;99.90
41926;DHT22;27615;51.826;5.692;2023-01-15T02:33:58;7.30;99.90
41926;DHT22;27615;51.826;5.692;2023-01-15T02:36:28;7.40;99.90
41926;DHT22;27615;51.826;5.692;2023-01-15T02:38:57;7.30;99.90
41926;DHT22;27615;51.826;5.692;2023-01-15T02:41:27;7.30;99.90
41926;DHT22;27615;51.826;5.692;2023-01-15T02:43:56;7.30;99.90
41926;DHT22;27615;51.826;5.692;2023-01-15T02:46:25;7.30;99.90
41926;DHT22;27615;51.826;5.692;2023-01-15T02:48:54;7.30;99.90
41926;DHT22;27615;51.826;5.692;2023-01-15T02:51:25;7.30;99.90
41926;DHT22;27615;51.826;5.692;2023-01-15T02:53:55;7.30;99.90
41926;DHT22;27615;51.826;5.692;2023-01-15T02:56:25;7.20;99.90
41926;DHT22;27615;51.826;5.692;2023-01-15T02:58:55;7.20;99.90
41926;DHT22;27615;51.826;5.692;2023-01-15T03:01:28;7.20;99.90
41926;DHT22;27615;51.826;5.692;2023-01-15T03:04:11;7.20;99.90
41926;DHT22;27615;51.826;5.692;2023-01-15T03:06:47;7.20;99.90
41926;DHT22;27615;51.826;5.692;2023-01-15T03:09:15;7.20;99.90
41926;DHT22;27615;51.826;5.692;2023-01-15T03:12:07;7.20;99.90
41926;DHT22;27615;51.826;5.692;2023-01-15T03:17:38;7.20;99.90
41926;DHT22;27615;51.826;5.692;2023-01-15T03:20:18;7.20;99.90
41926;DHT22;27615;51.826;5.692;2023-01-15T03:22:48;7.20;99.90
41926;DHT22;27615;51.826;5.692;2023-01-15T03:25:21;7.20;99.90
41926;DHT22;27615;51.826;5.692;2023-01-15T03:27:48;7.20;99.90
41926;DHT22;27615;51.826;5.692;2023-01-15T03:30:18;7.20;99.90
41926;DHT22;27615;51.826;5.692;2023-01-15T03:32:44;7.20;99.90
41926;DHT22;27615;51.826;5.692;2023-01-15T03:38:04;7.20;99.90
41926;DHT22;27615;51.826;5.692;2023-01-15T03:40:31;7.10;99.90
41926;DHT22;27615;51.826;5.692;2023-01-15T03:43:00;7.10;99.90
41926;DHT22;27615;51.826;5.692;2023-01-15T03:45:50;7.10;99.90
41926;DHT22;27615;51.826;5.692;2023-01-15T03:48:34;7.10;99.90
41926;DHT22;27615;51.826;5.692;2023-01-15T03:53:53;7.10;99.90
41926;DHT22;27615;51.826;5.692;2023-01-15T03:59:10;7.10;99.90
41926;DHT22;27615;51.826;5.692;2023-01-15T04:01:40;7.00;99.90
41926;DHT22;27615;51.826;5.692;2023-01-15T04:04:07;7.00;99.90
41926;DHT22;27615;51.826;5.692;2023-01-15T04:06:34;7.00;99.90
41926;DHT22;27615;51.826;5.692;2023-01-15T04:09:06;7.00;99.90
41926;DHT22;27615;51.826;5.692;2023-01-15T04:11:33;7.00;99.90
41926;DHT22;27615;51.826;5.692;2023-01-15T04:13:58;7.00;99.90
41926;DHT22;27615;51.826;5.692;2023-01-15T04:16:29;7.00;99.90
41926;DHT22;27615;51.826;5.692;2023-01-15T04:18:55;7.00;99.90
41926;DHT22;27615;51.826;5.692;2023-01-15T04:21:21;7.00;99.90
41926;DHT22;27615;51.826;5.692;2023-01-15T04:23:47;7.00;99.90
41926;DHT22;27615;51.826;5.692;2023-01-15T04:26:13;7.00;99.90
41926;DHT22;27615;51.826;5.692;2023-01-15T04:28:39;7.00;99.90
41926;DHT22;27615;51.826;5.692;2023-01-15T04:31:05;6.90;99.90
41926;DHT22;27615;51.826;5.692;2023-01-15T04:33:31;6.90;99.90
41926;DHT22;27615;51.826;5.692;2023-01-15T04:36:01;7.00;99.90
41926;DHT22;27615;51.826;5.692;2023-01-15T04:38:27;6.90;99.90
41926;DHT22;27615;51.826;5.692;2023-01-15T04:40:53;6.80;99.90
41926;DHT22;27615;51.826;5.692;2023-01-15T04:43:37;6.80;99.90
41926;DHT22;27615;51.826;5.692;2023-01-15T04:46:22;6.80;99.90
41926;DHT22;27615;51.826;5.692;2023-01-15T04:48:47;6.80;99.90
41926;DHT22;27615;51.826;5.692;2023-01-15T04:51:13;6.80;99.90
41926;DHT22;27615;51.826;5.692;2023-01-15T04:53:39;6.90;99.90
41926;DHT22;27615;51.826;5.692;2023-01-15T04:56:05;6.80;99.90
41926;DHT22;27615;51.826;5.692;2023-01-15T04:58:31;6.80;99.90
41926;DHT22;27615;51.826;5.692;2023-01-15T05:00:57;6.80;99.90
41926;DHT22;27615;51.826;5.692;2023-01-15T05:03:28;6.80;99.90
41926;DHT22;27615;51.826;5.692;2023-01-15T05:05:53;6.80;99.90
41926;DHT22;27615;51.826;5.692;2023-01-15T05:08:19;6.70;99.90
41926;DHT22;27615;51.826;5.692;2023-01-15T05:10:44;6.70;99.90
41926;DHT22;27615;51.826;5.692;2023-01-15T05:13:10;6.70;99.90
41926;DHT22;27615;51.826;5.692;2023-01-15T05:15:35;6.70;99.90
41926;DHT22;27615;51.826;5.692;2023-01-15T05:18:03;6.70;99.90
41926;DHT22;27615;51.826;5.692;2023-01-15T05:20:28;6.70;99.90
41926;DHT22;27615;51.826;5.692;2023-01-15T05:22:54;6.70;99.90
41926;DHT22;27615;51.826;5.692;2023-01-15T05:25:19;6.70;99.90
41926;DHT22;27615;51.826;5.692;2023-01-15T05:27:45;6.70;99.90
41926;DHT22;27615;51.826;5.692;2023-01-15T05:30:11;6.60;99.90
41926;DHT22;27615;51.826;5.692;2023-01-15T05:32:36;6.60;99.90
41926;DHT22;27615;51.826;5.692;2023-01-15T05:35:02;6.60;99.90
41926;DHT22;27615;51.826;5.692;2023-01-15T05:37:29;6.60;99.90
41926;DHT22;27615;51.826;5.692;2023-01-15T05:39:54;6.60;99.90
41926;DHT22;27615;51.826;5.692;2023-01-15T05:42:20;6.60;99.90
41926;DHT22;27615;51.826;5.692;2023-01-15T05:44:45;6.60;99.90
41926;DHT22;27615;51.826;5.692;2023-01-15T05:47:11;6.60;99.90
41926;DHT22;27615;51.826;5.692;2023-01-15T05:49:36;6.60;99.90
41926;DHT22;27615;51.826;5.692;2023-01-15T05:52:02;6.60;99.90
41926;DHT22;27615;51.826;5.692;2023-01-15T05:54:31;6.60;99.90
41926;DHT22;27615;51.826;5.692;2023-01-15T05:56:57;6.60;99.90
41926;DHT22;27615;51.826;5.692;2023-01-15T05:59:25;6.60;99.90
41926;DHT22;27615;51.826;5.692;2023-01-15T06:01:52;6.60;99.90
41926;DHT22;27615;51.826;5.692;2023-01-15T06:04:18;6.60;99.90
41926;DHT22;27615;51.826;5.692;2023-01-15T06:06:46;6.60;99.90
41926;DHT22;27615;51.826;5.692;2023-01-15T06:09:12;6.60;99.90
41926;DHT22;27615;51.826;5.692;2023-01-15T06:11:38;6.60;99.90
41926;DHT22;27615;51.826;5.692;2023-01-15T06:14:03;6.60;99.90
41926;DHT22;27615;51.826;5.692;2023-01-15T06:16:29;6.60;99.90
41926;DHT22;27615;51.826;5.692;2023-01-15T06:19:03;6.50;99.90
41926;DHT22;27615;51.826;5.692;2023-01-15T06:21:29;6.60;99.90
41926;DHT22;27615;51.826;5.692;2023-01-15T06:23:54;6.50;99.90
41926;DHT22;27615;51.826;5.692;2023-01-15T06:26:20;6.50;99.90
41926;DHT22;27615;51.826;5.692;2023-01-15T06:28:46;6.50;99.90
41926;DHT22;27615;51.826;5.692;2023-01-15T06:31:16;6.50;99.90
41926;DHT22;27615;51.826;5.692;2023-01-15T06:33:42;6.50;99.90
41926;DHT22;27615;51.826;5.692;2023-01-15T06:36:10;6.50;99.90
41926;DHT22;27615;51.826;5.692;2023-01-15T06:38:37;6.50;99.90
41926;DHT22;27615;51.826;5.692;2023-01-15T06:41:04;6.50;99.90
41926;DHT22;27615;51.826;5.692;2023-01-15T06:43:50;6.50;99.90
41926;DHT22;27615;51.826;5.692;2023-01-15T06:46:34;6.50;99.90
41926;DHT22;27615;51.826;5.692;2023-01-15T06:49:18;6.40;99.90
41926;DHT22;27615;51.826;5.692;2023-01-15T06:51:43;6.40;99.90
41926;DHT22;27615;51.826;5.692;2023-01-15T06:54:09;6.40;99.90
41926;DHT22;27615;51.826;5.692;2023-01-15T06:56:34;6.40;99.90
41926;DHT22;27615;51.826;5.692;2023-01-15T06:59:00;6.40;99.90
41926;DHT22;27615;51.826;5.692;2023-01-15T07:01:25;6.40;99.90
41926;DHT22;27615;51.826;5.692;2023-01-15T07:03:55;6.40;99.90
41926;DHT22;27615;51.826;5.692;2023-01-15T07:06:20;6.40;99.90
41926;DHT22;27615;51.826;5.692;2023-01-15T07:08:46;6.30;99.90
41926;DHT22;27615;51.826;5.692;2023-01-15T07:11:12;6.30;99.90
41926;DHT22;27615;51.826;5.692;2023-01-15T07:13:38;6.30;99.90
41926;DHT22;27615;51.826;5.692;2023-01-15T07:16:04;6.30;99.90
41926;DHT22;27615;51.826;5.692;2023-01-15T07:18:31;6.30;99.90
41926;DHT22;27615;51.826;5.692;2023-01-15T07:20:58;6.30;99.90
41926;DHT22;27615;51.826;5.692;2023-01-15T07:23:25;6.30;99.90
41926;DHT22;27615;51.826;5.692;2023-01-15T07:25:54;6.30;99.90
41926;DHT22;27615;51.826;5.692;2023-01-15T07:28:21;6.30;99.90
41926;DHT22;27615;51.826;5.692;2023-01-15T07:30:47;6.30;99.90
41926;DHT22;27615;51.826;5.692;2023-01-15T07:33:12;6.30;99.90
41926;DHT22;27615;51.826;5.692;2023-01-15T07:35:38;6.30;99.90
41926;DHT22;27615;51.826;5.692;2023-01-15T07:38:03;6.30;99.90
41926;DHT22;27615;51.826;5.692;2023-01-15T07:40:29;6.20;99.90
41926;DHT22;27615;51.826;5.692;2023-01-15T07:42:55;6.20;99.90
41926;DHT22;27615;51.826;5.692;2023-01-15T07:45:39;6.20;99.90
41926;DHT22;27615;51.826;5.692;2023-01-15T07:48:25;6.20;99.90
41926;DHT22;27615;51.826;5.692;2023-01-15T07:51:09;6.20;99.90
41926;DHT22;27615;51.826;5.692;2023-01-15T07:53:35;6.20;99.90
41926;DHT22;27615;51.826;5.692;2023-01-15T07:56:00;6.20;99.90
41926;DHT22;27615;51.826;5.692;2023-01-15T07:58:26;6.20;99.90
41926;DHT22;27615;51.826;5.692;2023-01-15T08:00:52;6.20;99.90
41926;DHT22;27615;51.826;5.692;2023-01-15T08:03:17;6.20;99.90
41926;DHT22;27615;51.826;5.692;2023-01-15T08:05:43;6.20;99.90
41926;DHT22;27615;51.826;5.692;2023-01-15T08:08:14;6.20;99.90
41926;DHT22;27615;51.826;5.692;2023-01-15T08:10:39;6.10;99.90
41926;DHT22;27615;51.826;5.692;2023-01-15T08:13:25;6.10;99.90
41926;DHT22;27615;51.826;5.692;2023-01-15T08:16:09;6.10;99.90
41926;DHT22;27615;51.826;5.692;2023-01-15T08:18:36;6.10;99.90
41926;DHT22;27615;51.826;5.692;2023-01-15T08:21:01;6.10;99.90
41926;DHT22;27615;51.826;5.692;2023-01-15T08:23:27;6.10;99.90
41926;DHT22;27615;51.826;5.692;2023-01-15T08:25:52;6.10;99.90
41926;DHT22;27615;51.826;5.692;2023-01-15T08:28:18;6.10;99.90
41926;DHT22;27615;51.826;5.692;2023-01-15T08:30:43;6.10;99.90
41926;DHT22;27615;51.826;5.692;2023-01-15T08:33:09;6.10;99.90
41926;DHT22;27615;51.826;5.692;2023-01-15T08:35:34;6.20;99.90
41926;DHT22;27615;51.826;5.692;2023-01-15T08:38:06;6.20;99.90
41926;DHT22;27615;51.826;5.692;2023-01-15T08:40:33;6.20;99.90
41926;DHT22;27615;51.826;5.692;2023-01-15T08:43:00;6.20;99.90
41926;DHT22;27615;51.826;5.692;2023-01-15T08:45:26;6.20;99.90
41926;DHT22;27615;51.826;5.692;2023-01-15T08:47:54;6.20;99.90
41926;DHT22;27615;51.826;5.692;2023-01-15T08:50:21;6.30;99.90
41926;DHT22;27615;51.826;5.692;2023-01-15T08:52:46;6.30;99.90
41926;DHT22;27615;51.826;5.692;2023-01-15T08:55:12;6.30;99.90
41926;DHT22;27615;51.826;5.692;2023-01-15T08:57:37;6.30;99.90
41926;DHT22;27615;51.826;5.692;2023-01-15T09:00:04;6.30;99.90
41926;DHT22;27615;51.826;5.692;2023-01-15T09:02:30;6.40;99.90
41926;DHT22;27615;51.826;5.692;2023-01-15T09:04:55;6.40;99.90
41926;DHT22;27615;51.826;5.692;2023-01-15T09:07:21;6.40;99.90
41926;DHT22;27615;51.826;5.692;2023-01-15T09:09:46;6.40;99.90
41926;DHT22;27615;51.826;5.692;2023-01-15T09:12:12;6.50;99.90
41926;DHT22;27615;51.826;5.692;2023-01-15T09:14:38;6.50;99.90
41926;DHT22;27615;51.826;5.692;2023-01-15T09:17:04;6.50;99.90
41926;DHT22;27615;51.826;5.692;2023-01-15T09:19:29;6.50;99.90
41926;DHT22;27615;51.826;5.692;2023-01-15T09:21:55;6.50;99.90
41926;DHT22;27615;51.826;5.692;2023-01-15T09:24:20;6.50;99.90
41926;DHT22;27615;51.826;5.692;2023-01-15T09:26:46;6.50;99.90
41926;DHT22;27615;51.826;5.692;2023-01-15T09:29:12;6.60;99.90
41926;DHT22;27615;51.826;5.692;2023-01-15T09:31:37;6.60;99.90
41926;DHT22;27615;51.826;5.692;2023-01-15T09:34:03;6.60;99.90
41926;DHT22;27615;51.826;5.692;2023-01-15T09:36:31;6.70;99.90
41926;DHT22;27615;51.826;5.692;2023-01-15T09:38:58;6.70;99.90
41926;DHT22;27615;51.826;5.692;2023-01-15T09:41:28;6.80;99.90
41926;DHT22;27615;51.826;5.692;2023-01-15T09:47:10;6.90;99.90
41926;DHT22;27615;51.826;5.692;2023-01-15T09:49:50;7.00;99.90
41926;DHT22;27615;51.826;5.692;2023-01-15T09:57:24;7.00;99.90
41926;DHT22;27615;51.826;5.692;2023-01-15T09:59:52;7.10;99.90
41926;DHT22;27615;51.826;5.692;2023-01-15T10:04:56;7.30;99.90
41926;DHT22;27615;51.826;5.692;2023-01-15T10:10:05;7.80;99.90
41926;DHT22;27615;51.826;5.692;2023-01-15T10:12:35;8.10;99.90
41926;DHT22;27615;51.826;5.692;2023-01-15T10:15:16;8.40;99.90
41926;DHT22;27615;51.826;5.692;2023-01-15T10:17:45;8.50;99.90
41926;DHT22;27615;51.826;5.692;2023-01-15T10:20:34;8.70;99.90
41926;DHT22;27615;51.826;5.692;2023-01-15T10:26:12;9.30;98.60
41926;DHT22;27615;51.826;5.692;2023-01-15T10:28:57;9.80;97.40
41926;DHT22;27615;51.826;5.692;2023-01-15T10:31:36;10.00;96.10
41926;DHT22;27615;51.826;5.692;2023-01-15T10:37:29;9.80;95.10
41926;DHT22;27615;51.826;5.692;2023-01-15T10:45:46;9.50;95.60
41926;DHT22;27615;51.826;5.692;2023-01-15T10:48:52;9.70;95.20
41926;DHT22;27615;51.826;5.692;2023-01-15T10:51:22;9.80;94.50
41926;DHT22;27615;51.826;5.692;2023-01-15T10:53:56;9.40;94.00
41926;DHT22;27615;51.826;5.692;2023-01-15T10:56:31;9.20;94.70
41926;DHT22;27615;51.826;5.692;2023-01-15T10:59:15;9.30;95.70
41926;DHT22;27615;51.826;5.692;2023-01-15T11:01:42;9.70;95.60
41926;DHT22;27615;51.826;5.692;2023-01-15T11:04:11;9.50;94.40
41926;DHT22;27615;51.826;5.692;2023-01-15T11:06:38;9.20;94.70
41926;DHT22;27615;51.826;5.692;2023-01-15T11:09:04;9.00;95.40
41926;DHT22;27615;51.826;5.692;2023-01-15T11:11:45;9.10;95.50
41926;DHT22;27615;51.826;5.692;2023-01-15T11:14:38;9.10;95.50
41926;DHT22;27615;51.826;5.692;2023-01-15T11:17:24;9.00;95.80
41926;DHT22;27615;51.826;5.692;2023-01-15T11:22:41;8.70;96.50
41926;DHT22;27615;51.826;5.692;2023-01-15T11:25:07;8.60;97.30
41926;DHT22;27615;51.826;5.692;2023-01-15T11:27:35;8.50;97.00
41926;DHT22;27615;51.826;5.692;2023-01-15T11:30:04;8.40;98.00
41926;DHT22;27615;51.826;5.692;2023-01-15T11:32:32;8.70;98.40
41926;DHT22;27615;51.826;5.692;2023-01-15T11:35:00;9.20;97.70
41926;DHT22;27615;51.826;5.692;2023-01-15T11:37:27;9.90;96.60
41926;DHT22;27615;51.826;5.692;2023-01-15T11:39:58;10.30;95.00
41926;DHT22;27615;51.826;5.692;2023-01-15T11:42:30;9.90;94.30
41926;DHT22;27615;51.826;5.692;2023-01-15T11:45:17;9.50;94.90
41926;DHT22;27615;51.826;5.692;2023-01-15T11:48:16;9.50;96.00
41926;DHT22;27615;51.826;5.692;2023-01-15T11:53:31;10.30;95.00
41926;DHT22;27615;51.826;5.692;2023-01-15T11:56:03;10.30;94.20
41926;DHT22;27615;51.826;5.692;2023-01-15T11:58:43;10.40;94.50
41926;DHT22;27615;51.826;5.692;2023-01-15T12:01:13;11.00;93.60
41926;DHT22;27615;51.826;5.692;2023-01-15T12:03:41;10.80;92.60
41926;DHT22;27615;51.826;5.692;2023-01-15T12:06:09;10.40;92.90
41926;DHT22;27615;51.826;5.692;2023-01-15T12:09:23;10.00;93.10
41926;DHT22;27615;51.826;5.692;2023-01-15T12:16:54;11.00;94.40
41926;DHT22;27615;51.826;5.692;2023-01-15T12:19:48;11.00;92.20
41926;DHT22;27615;51.826;5.692;2023-01-15T12:22:23;10.40;92.20
41926;DHT22;27615;51.826;5.692;2023-01-15T12:33:40;10.00;94.10
41926;DHT22;27615;51.826;5.692;2023-01-15T12:36:30;10.50;94.00
41926;DHT22;27615;51.826;5.692;2023-01-15T12:38:59;11.40;92.30
41926;DHT22;27615;51.826;5.692;2023-01-15T12:41:32;11.90;91.50
41926;DHT22;27615;51.826;5.692;2023-01-15T12:44:23;12.10;90.40
41926;DHT22;27615;51.826;5.692;2023-01-15T12:47:13;11.50;90.50
41926;DHT22;27615;51.826;5.692;2023-01-15T12:49:52;10.60;91.40
41926;DHT22;27615;51.826;5.692;2023-01-15T12:52:25;10.00;93.40
41926;DHT22;27615;51.826;5.692;2023-01-15T12:55:12;9.60;94.70
41926;DHT22;27615;51.826;5.692;2023-01-15T12:57:42;9.20;95.50
41926;DHT22;27615;51.826;5.692;2023-01-15T13:05:19;9.50;97.30
41926;DHT22;27615;51.826;5.692;2023-01-15T13:10:25;10.20;94.80
41926;DHT22;27615;51.826;5.692;2023-01-15T13:12:59;9.80;94.30
41926;DHT22;27615;51.826;5.692;2023-01-15T13:15:30;9.50;94.80
41926;DHT22;27615;51.826;5.692;2023-01-15T13:18:10;9.20;95.60
41926;DHT22;27615;51.826;5.692;2023-01-15T13:20:49;9.40;96.70
41926;DHT22;27615;51.826;5.692;2023-01-15T13:23:31;10.00;95.80
41926;DHT22;27615;51.826;5.692;2023-01-15T13:26:26;10.00;94.80
41926;DHT22;27615;51.826;5.692;2023-01-15T13:29:19;9.60;95.00
41926;DHT22;27615;51.826;5.692;2023-01-15T13:39:44;8.20;99.80
41926;DHT22;27615;51.826;5.692;2023-01-15T13:42:20;8.00;99.90
41926;DHT22;27615;51.826;5.692;2023-01-15T13:47:34;7.70;99.90
41926;DHT22;27615;51.826;5.692;2023-01-15T13:50:05;7.60;99.90
41926;DHT22;27615;51.826;5.692;2023-01-15T13:52:36;7.50;99.90
41926;DHT22;27615;51.826;5.692;2023-01-15T13:55:14;7.50;99.90
41926;DHT22;27615;51.826;5.692;2023-01-15T13:57:44;7.50;99.90
41926;DHT22;27615;51.826;5.692;2023-01-15T14:00:32;7.40;99.90
41926;DHT22;27615;51.826;5.692;2023-01-15T14:03:00;7.40;99.90
41926;DHT22;27615;51.826;5.692;2023-01-15T14:05:33;7.50;99.90
41926;DHT22;27615;51.826;5.692;2023-01-15T14:08:00;7.60;99.90
41926;DHT22;27615;51.826;5.692;2023-01-15T14:35:00;7.10;99.90
41926;DHT22;27615;51.826;5.692;2023-01-15T14:37:42;7.00;99.90
41926;DHT22;27615;51.826;5.692;2023-01-15T14:40:29;7.00;99.90
41926;DHT22;27615;51.826;5.692;2023-01-15T14:42:58;7.00;99.90
41926;DHT22;27615;51.826;5.692;2023-01-15T14:45:43;6.90;99.90
41926;DHT22;27615;51.826;5.692;2023-01-15T14:50:44;7.00;99.90
41926;DHT22;27615;51.826;5.692;2023-01-15T14:55:49;7.00;99.90
41926;DHT22;27615;51.826;5.692;2023-01-15T15:00:52;7.10;99.90
41926;DHT22;27615;51.826;5.692;2023-01-15T15:03:30;7.10;99.90
41926;DHT22;27615;51.826;5.692;2023-01-15T15:05:57;7.10;99.90
41926;DHT22;27615;51.826;5.692;2023-01-15T15:08:26;7.10;99.90
41926;DHT22;27615;51.826;5.692;2023-01-15T15:10:55;7.10;99.90
41926;DHT22;27615;51.826;5.692;2023-01-15T15:13:36;7.00;99.90
41926;DHT22;27615;51.826;5.692;2023-01-15T15:16:30;7.10;99.90
41926;DHT22;27615;51.826;5.692;2023-01-15T15:19:06;7.10;99.90
41926;DHT22;27615;51.826;5.692;2023-01-15T15:21:44;7.10;99.90
41926;DHT22;27615;51.826;5.692;2023-01-15T15:24:25;7.20;99.90
41926;DHT22;27615;51.826;5.692;2023-01-15T15:26:52;7.20;99.90
41926;DHT22;27615;51.826;5.692;2023-01-15T15:29:19;7.30;99.90
41926;DHT22;27615;51.826;5.692;2023-01-15T15:31:51;7.30;99.90
41926;DHT22;27615;51.826;5.692;2023-01-15T15:37:04;7.40;99.90
41926;DHT22;27615;51.826;5.692;2023-01-15T15:39:42;7.40;99.90
41926;DHT22;27615;51.826;5.692;2023-01-15T15:42:22;7.40;99.90
41926;DHT22;27615;51.826;5.692;2023-01-15T15:45:27;7.40;99.90
41926;DHT22;27615;51.826;5.692;2023-01-15T15:48:13;7.40;99.90
41926;DHT22;27615;51.826;5.692;2023-01-15T15:50:59;7.30;99.90
41926;DHT22;27615;51.826;5.692;2023-01-15T15:53:24;7.30;99.90
41926;DHT22;27615;51.826;5.692;2023-01-15T15:55:50;7.30;99.90
41926;DHT22;27615;51.826;5.692;2023-01-15T15:58:23;7.30;99.90
41926;DHT22;27615;51.826;5.692;2023-01-15T16:00:50;7.30;99.90
41926;DHT22;27615;51.826;5.692;2023-01-15T16:03:20;7.30;99.90
41926;DHT22;27615;51.826;5.692;2023-01-15T16:06:00;7.30;99.90
41926;DHT22;27615;51.826;5.692;2023-01-15T16:08:28;7.30;99.90
41926;DHT22;27615;51.826;5.692;2023-01-15T16:10:56;7.30;99.90
41926;DHT22;27615;51.826;5.692;2023-01-15T16:13:39;7.30;99.90
41926;DHT22;27615;51.826;5.692;2023-01-15T16:16:06;7.30;99.90
41926;DHT22;27615;51.826;5.692;2023-01-15T16:18:41;7.20;99.90
41926;DHT22;27615;51.826;5.692;2023-01-15T16:21:10;7.20;99.90
41926;DHT22;27615;51.826;5.692;2023-01-15T16:23:40;7.20;99.90
41926;DHT22;27615;51.826;5.692;2023-01-15T16:26:20;7.20;99.90
41926;DHT22;27615;51.826;5.692;2023-01-15T16:28:52;7.20;99.90
41926;DHT22;27615;51.826;5.692;2023-01-15T16:31:19;7.20;99.90
41926;DHT22;27615;51.826;5.692;2023-01-15T16:33:51;7.10;99.90
41926;DHT22;27615;51.826;5.692;2023-01-15T16:36:17;7.10;99.90
41926;DHT22;27615;51.826;5.692;2023-01-15T16:38:46;7.00;99.90
41926;DHT22;27615;51.826;5.692;2023-01-15T16:41:23;7.00;99.90
41926;DHT22;27615;51.826;5.692;2023-01-15T16:43:57;7.00;99.90
41926;DHT22;27615;51.826;5.692;2023-01-15T16:46:27;6.90;99.90
41926;DHT22;27615;51.826;5.692;2023-01-15T16:51:42;6.90;99.90
41926;DHT22;27615;51.826;5.692;2023-01-15T16:56:58;6.80;99.90
41926;DHT22;27615;51.826;5.692;2023-01-15T17:02:04;6.70;99.90
41926;DHT22;27615;51.826;5.692;2023-01-15T17:04:37;6.70;99.90
41926;DHT22;27615;51.826;5.692;2023-01-15T17:10:26;6.60;99.90
41926;DHT22;27615;51.826;5.692;2023-01-15T17:12:53;6.60;99.90
41926;DHT22;27615;51.826;5.692;2023-01-15T17:17:54;6.60;99.90
41926;DHT22;27615;51.826;5.692;2023-01-15T17:20:22;6.60;99.90
41926;DHT22;27615;51.826;5.692;2023-01-15T17:22:52;6.50;99.90
41926;DHT22;27615;51.826;5.692;2023-01-15T17:25:27;6.50;99.90
41926;DHT22;27615;51.826;5.692;2023-01-15T17:27:55;6.50;99.90
41926;DHT22;27615;51.826;5.692;2023-01-15T17:30:21;6.50;99.90
41926;DHT22;27615;51.826;5.692;2023-01-15T17:32:50;6.50;99.90
41926;DHT22;27615;51.826;5.692;2023-01-15T17:35:24;6.50;99.90
41926;DHT22;27615;51.826;5.692;2023-01-15T17:37:50;6.50;99.90
41926;DHT22;27615;51.826;5.692;2023-01-15T17:40:16;6.40;99.90
41926;DHT22;27615;51.826;5.692;2023-01-15T17:42:41;6.40;99.90
41926;DHT22;27615;51.826;5.692;2023-01-15T17:45:22;6.40;99.90
41926;DHT22;27615;51.826;5.692;2023-01-15T17:47:48;6.40;99.90
41926;DHT22;27615;51.826;5.692;2023-01-15T17:50:15;6.30;99.90
41926;DHT22;27615;51.826;5.692;2023-01-15T17:52:41;6.30;99.90
41926;DHT22;27615;51.826;5.692;2023-01-15T17:55:12;6.30;99.90
41926;DHT22;27615;51.826;5.692;2023-01-15T17:57:56;6.20;99.90
41926;DHT22;27615;51.826;5.692;2023-01-15T18:00:40;6.20;99.90
41926;DHT22;27615;51.826;5.692;2023-01-15T18:03:24;6.20;99.90
41926;DHT22;27615;51.826;5.692;2023-01-15T18:06:10;6.20;99.90
41926;DHT22;27615;51.826;5.692;2023-01-15T18:08:38;6.10;99.90
41926;DHT22;27615;51.826;5.692;2023-01-15T18:11:04;6.10;99.90
41926;DHT22;27615;51.826;5.692;2023-01-15T18:13:30;6.10;99.90
41926;DHT22;27615;51.826;5.692;2023-01-15T18:15:55;6.10;99.90
41926;DHT22;27615;51.826;5.692;2023-01-15T18:18:21;6.10;99.90